Airfield :
LOGIN :

Register | Disclaimer

   EN    FR    IT 

 










Legend :    VFR   Marginal VFR   IFR   Intensive IFR   Very Intensive IFR
Visi :
Ceiling :
>= 8 km
>= 3000ft
5 to 8 km
1000 to 3000 ft
1500m to 5 km
500 to 1000 ft
800 to 1500m
200 to 500 ft
< 800m
< 200 ft
Symbols :   Thunderstorms  Fog  Heavy snow  Heavy precipitations  Wind > 20 kt
SIGMETs :     Misc.  Thunderstorms  Icing  Turbulence  Mountain Waves  Volcanic Ashes






- Airport Elevation : 56 ft
- IATA code : ILY


EGPI - Islay

CURRENT METAR :
  • 221150Z 15015KT CAVOK 11/06 Q1026

EXPIRED METARs :
  • 221120Z AUTO VRB15KT 9999 NCD 11/06 Q1027
  • 221050Z AUTO VRB15KT 9999 NCD 10/06 Q1026
  • 221020Z AUTO VRB15KT 9999 NCD 10/06 Q1026
  • 220950Z 15014KT CAVOK 10/06 Q1026
  • 220920Z 13016KT 9999 FEW020 10/06 Q1026
  • 220850Z AUTO VRB14KT 9999 NCD 10/06 Q1026

TAF TAF EGPI
Valid from the 22 at 12:00 until the 22 at 18:00 UTC


221058Z 2212/2218 15014KT 9999 FEW040



MET'MAP, your aeronautical weather chart ! - Copyright ORBIFLY December 2007 - Disclaimer

ORBIFLY MET'MAP TEAM :

Programming & Development : Alexandra Zaïnal
Concept & original design : Baudouin d'Aumeries
Assistance for programming : Marc-Olivier Méhu
Technical & hardware support : Manuel Goepfert

Contact : metmap@orbifly.com




SOURCES & CREDITS :

   NOAA